Time;durP1;ratioP1;P1;durP2;ratioP2;P2;SDS_P1;SDS_P2;PMS_P1;PMS_P2;Temp;Humidity;BMP_temperature;BMP_pressure;BME280_temperature;BME280_humidity;BME280_pressure;Samples;Min_cycle;Max_cycle;Signal;HPM_P1;HPM_P2
2021/11/29 00:01:24;;;;;;;3.63;1.65;;;1.90;94.80;;;;;;5069529;28;20315;-78
2021/11/29 00:03:51;;;;;;;2.88;1.20;;;1.90;94.70;;;;;;5067064;28;20057;-78
2021/11/29 00:06:19;;;;;;;2.67;0.95;;;1.90;94.70;;;;;;5065752;28;20102;-78
2021/11/29 00:08:48;;;;;;;3.20;1.20;;;1.90;94.70;;;;;;5032659;28;20067;-78
2021/11/29 00:11:15;;;;;;;3.05;0.80;;;2.00;94.70;;;;;;5065881;28;20097;-78
2021/11/29 00:13:42;;;;;;;2.00;0.90;;;2.00;94.80;;;;;;5032801;28;20098;-78
2021/11/29 00:16:09;;;;;;;1.95;0.90;;;2.00;94.70;;;;;;5049251;28;20036;-78
2021/11/29 00:18:37;;;;;;;3.65;1.13;;;2.00;94.70;;;;;;5067176;28;20064;-78
2021/11/29 00:21:05;;;;;;;2.65;1.08;;;2.00;94.70;;;;;;5067065;28;20094;-78
2021/11/29 00:23:33;;;;;;;2.42;0.90;;;2.00;94.70;;;;;;5064504;28;20044;-78
2021/11/29 00:26:00;;;;;;;2.78;1.10;;;2.00;94.70;;;;;;5049894;28;20094;-78
2021/11/29 00:28:28;;;;;;;3.67;1.30;;;2.00;94.70;;;;;;5066120;28;20484;-78
2021/11/29 00:30:55;;;;;;;4.72;1.10;;;2.10;94.70;;;;;;5064808;28;20048;-78
2021/11/29 00:33:23;;;;;;;3.97;1.45;;;2.10;94.70;;;;;;5064434;28;20083;-78
2021/11/29 00:35:50;;;;;;;1.83;1.17;;;2.20;94.60;;;;;;5049016;28;20055;-78
2021/11/29 00:38:17;;;;;;;2.90;1.00;;;2.20;94.60;;;;;;5066028;28;20523;-78
2021/11/29 00:40:44;;;;;;;3.72;0.80;;;2.20;94.60;;;;;;5055580;28;20040;-78
2021/11/29 00:43:11;;;;;;;2.72;0.80;;;2.20;94.50;;;;;;5081838;28;20047;-78
2021/11/29 00:45:38;;;;;;;2.75;0.50;;;2.20;94.50;;;;;;5032224;28;20040;-78
2021/11/29 00:48:05;;;;;;;4.13;1.00;;;2.20;94.50;;;;;;5066265;28;20572;-78
2021/11/29 00:50:37;;;;;;;1.58;0.40;;;2.20;94.60;;;;;;5032316;28;20045;-78
2021/11/29 00:53:07;;;;;;;0.70;0.32;;;2.10;94.60;;;;;;5063378;28;20052;-78
2021/11/29 00:55:34;;;;;;;2.83;0.40;;;2.10;94.60;;;;;;5061168;28;20039;-78
2021/11/29 00:58:02;;;;;;;0.93;0.43;;;2.10;94.70;;;;;;5061265;28;20476;-78
2021/11/29 01:00:31;;;;;;;0.67;0.40;;;2.00;94.70;;;;;;5045823;28;20446;-78
2021/11/29 01:02:59;;;;;;;0.80;0.30;;;2.10;94.70;;;;;;5068862;28;20054;-78
2021/11/29 01:05:26;;;;;;;0.55;0.30;;;2.00;94.70;;;;;;5091470;28;20046;-78
2021/11/29 01:07:58;;;;;;;1.80;0.20;;;2.00;94.70;;;;;;5092672;28;20036;-78
2021/11/29 01:10:27;;;;;;;1.10;0.30;;;2.00;94.70;;;;;;5073962;28;20305;-81
2021/11/29 01:12:55;;;;;;;1.58;0.35;;;1.90;94.70;;;;;;5072636;28;20029;-79
2021/11/29 01:15:27;;;;;;;2.10;0.40;;;1.90;94.70;;;;;;5077890;28;20913;-79
2021/11/29 01:17:54;;;;;;;0.68;0.20;;;1.90;94.70;;;;;;5059261;28;20152;-78
2021/11/29 01:20:21;;;;;;;0.93;0.20;;;2.00;94.70;;;;;;5064088;28;20107;-78
2021/11/29 01:22:48;;;;;;;1.48;0.30;;;1.90;94.70;;;;;;5048187;28;20083;-78
2021/11/29 01:25:20;;;;;;;0.83;0.20;;;1.90;94.70;;;;;;5081045;28;20057;-78
2021/11/29 01:27:47;;;;;;;0.15;0.10;;;1.90;94.70;;;;;;5097999;28;20050;-81
2021/11/29 01:30:15;;;;;;;0.70;0.20;;;1.90;94.80;;;;;;5048461;28;20074;-80
2021/11/29 01:32:42;;;;;;;0.82;0.28;;;1.80;94.80;;;;;;5049017;28;20686;-81
2021/11/29 01:35:10;;;;;;;0.67;0.13;;;1.80;94.80;;;;;;5047335;28;20069;-80
2021/11/29 01:37:37;;;;;;;1.80;0.10;;;1.90;94.90;;;;;;5048108;28;20500;-80
2021/11/29 01:40:06;;;;;;;0.87;0.10;;;1.80;94.80;;;;;;5064917;28;20048;-80
2021/11/29 01:42:33;;;;;;;0.45;0.15;;;1.80;94.80;;;;;;5064727;28;20116;-79
2021/11/29 01:45:01;;;;;;;1.03;0.10;;;1.80;94.90;;;;;;5064051;28;20119;-79
2021/11/29 01:47:28;;;;;;;0.88;0.17;;;1.80;94.90;;;;;;5048067;28;20053;-79
2021/11/29 01:49:55;;;;;;;1.55;0.10;;;1.90;94.90;;;;;;5049670;28;20048;-77
2021/11/29 01:52:22;;;;;;;0.50;0.20;;;1.90;94.90;;;;;;5047982;28;20136;-77
2021/11/29 01:54:49;;;;;;;3.00;0.20;;;1.90;94.90;;;;;;5047462;28;20040;-78
2021/11/29 01:57:16;;;;;;;0.57;0.13;;;1.90;94.90;;;;;;5025580;28;20052;-77
2021/11/29 01:59:43;;;;;;;0.10;0.10;;;1.90;94.80;;;;;;5034075;28;20111;-77
2021/11/29 02:02:12;;;;;;;1.47;0.30;;;2.00;94.80;;;;;;5068655;28;20924;-77
2021/11/29 02:04:41;;;;;;;0.30;0.10;;;2.00;94.80;;;;;;5067454;28;20060;-78
2021/11/29 02:07:09;;;;;;;0.85;0.20;;;2.00;94.70;;;;;;5068750;28;20044;-78
2021/11/29 02:09:37;;;;;;;1.07;0.60;;;2.00;94.70;;;;;;5068339;28;20040;-78
2021/11/29 02:12:04;;;;;;;0.63;0.15;;;2.00;94.70;;;;;;5064719;28;20056;-78
2021/11/29 02:14:32;;;;;;;2.13;0.20;;;2.00;94.70;;;;;;5047346;28;20546;-78
2021/11/29 02:16:59;;;;;;;1.63;0.40;;;2.10;94.70;;;;;;5067180;28;20044;-78
2021/11/29 02:19:26;;;;;;;0.27;0.17;;;2.10;94.70;;;;;;5048191;28;20447;-78
2021/11/29 02:21:53;;;;;;;1.02;0.30;;;2.00;94.70;;;;;;5048577;28;20062;-78
2021/11/29 02:24:20;;;;;;;1.17;0.20;;;2.00;94.70;;;;;;5065796;28;20317;-78
2021/11/29 02:26:47;;;;;;;1.23;0.30;;;2.00;94.70;;;;;;5068222;28;20056;-75
2021/11/29 02:29:16;;;;;;;1.45;0.30;;;2.00;94.70;;;;;;5049251;28;20033;-75
2021/11/29 02:31:46;;;;;;;0.50;0.10;;;2.00;94.70;;;;;;5066516;28;20068;-75
2021/11/29 02:34:17;;;;;;;0.70;0.17;;;2.00;94.70;;;;;;5064384;28;20044;-75
2021/11/29 02:36:44;;;;;;;1.00;0.87;;;2.00;94.70;;;;;;5065409;28;20029;-75
2021/11/29 02:39:13;;;;;;;0.90;0.20;;;2.00;94.70;;;;;;5058299;28;20037;-75
2021/11/29 02:41:41;;;;;;;0.90;0.10;;;1.90;94.70;;;;;;5033810;28;20072;-75
2021/11/29 02:44:08;;;;;;;0.83;0.20;;;1.90;94.80;;;;;;5050002;28;20090;-75
2021/11/29 02:46:36;;;;;;;0.98;0.20;;;1.90;94.70;;;;;;5050419;28;20470;-75
2021/11/29 02:49:06;;;;;;;0.50;0.20;;;1.90;94.70;;;;;;5050654;28;20717;-75
2021/11/29 02:51:39;;;;;;;0.93;0.22;;;1.90;94.80;;;;;;5065092;28;20400;-75
2021/11/29 02:54:18;;;;;;;0.60;0.17;;;1.80;94.80;;;;;;5082459;28;20110;-75
2021/11/29 02:56:48;;;;;;;0.40;0.17;;;1.90;94.80;;;;;;5065692;28;20067;-75
2021/11/29 02:59:21;;;;;;;0.67;0.10;;;1.80;94.80;;;;;;5066429;28;20044;-75
2021/11/29 03:01:53;;;;;;;0.93;0.20;;;1.80;94.90;;;;;;5066952;28;20056;-75
2021/11/29 03:04:22;;;;;;;;;;;1.80;94.80;;;;;;5067632;28;20041;-75
2021/11/29 03:06:49;;;;;;;1.60;0.20;;;1.80;94.80;;;;;;5065626;28;20031;-75
2021/11/29 03:09:17;;;;;;;0.50;0.20;;;1.70;94.80;;;;;;5050184;28;20048;-75
2021/11/29 03:11:44;;;;;;;1.45;0.47;;;1.80;94.80;;;;;;5066666;28;20041;-75
2021/11/29 03:14:11;;;;;;;1.20;0.20;;;1.80;94.80;;;;;;5065182;28;20145;-75
2021/11/29 03:16:38;;;;;;;0.47;0.20;;;1.80;94.80;;;;;;5050352;28;20032;-76
2021/11/29 03:19:06;;;;;;;0.33;0.13;;;1.70;94.80;;;;;;5048410;28;20127;-75
2021/11/29 03:21:33;;;;;;;0.37;0.20;;;1.70;95.10;;;;;;5065879;28;20090;-75
2021/11/29 03:24:04;;;;;;;1.70;0.20;;;1.70;94.90;;;;;;5049524;28;20715;-76
2021/11/29 03:26:32;;;;;;;0.73;0.33;;;1.70;94.90;;;;;;5066025;28;20465;-75
2021/11/29 03:29:09;;;;;;;1.30;0.20;;;1.70;94.80;;;;;;5049536;28;20150;-75
2021/11/29 03:31:37;;;;;;;0.77;0.20;;;1.70;94.80;;;;;;5065098;28;20171;-75
2021/11/29 03:34:06;;;;;;;0.70;0.30;;;1.70;94.90;;;;;;5065483;28;20056;-75
2021/11/29 03:36:36;;;;;;;1.17;0.20;;;1.70;94.90;;;;;;5048714;28;20127;-75
2021/11/29 03:39:07;;;;;;;0.40;0.20;;;1.70;94.90;;;;;;5065499;28;20037;-75
2021/11/29 03:41:34;;;;;;;0.50;0.10;;;1.70;94.90;;;;;;5065620;28;20040;-74
2021/11/29 03:44:02;;;;;;;1.55;0.20;;;1.70;94.90;;;;;;5056773;28;20094;-75
2021/11/29 03:46:29;;;;;;;0.20;0.10;;;1.60;94.90;;;;;;5065002;28;20040;-75
2021/11/29 03:48:56;;;;;;;0.60;0.20;;;1.70;94.90;;;;;;5066854;28;20121;-75
2021/11/29 03:51:24;;;;;;;0.75;0.10;;;1.60;94.90;;;;;;5065673;28;20094;-75
2021/11/29 03:53:54;;;;;;;2.05;0.20;;;1.60;94.90;;;;;;5066128;28;20079;-75
2021/11/29 03:56:21;;;;;;;0.43;0.13;;;1.60;94.90;;;;;;5065307;28;20036;-75
2021/11/29 03:58:51;;;;;;;0.70;0.10;;;1.60;94.90;;;;;;5081996;28;20132;-75
2021/11/29 04:01:18;;;;;;;0.13;0.10;;;1.60;94.90;;;;;;5069046;28;20040;-75
2021/11/29 04:03:45;;;;;;;0.93;0.20;;;1.60;94.90;;;;;;5069377;28;20431;-75
2021/11/29 04:06:12;;;;;;;1.20;0.20;;;1.60;94.90;;;;;;5070292;28;20041;-75
2021/11/29 04:08:39;;;;;;;4.03;0.30;;;1.60;94.90;;;;;;5038900;28;20052;-76
2021/11/29 04:11:07;;;;;;;0.95;0.20;;;1.60;94.90;;;;;;5053709;28;20052;-75
2021/11/29 04:13:34;;;;;;;1.55;0.15;;;1.60;94.90;;;;;;5071090;28;20155;-75
2021/11/29 04:16:01;;;;;;;0.27;0.10;;;1.60;95.00;;;;;;5068728;28;20091;-75
2021/11/29 04:18:29;;;;;;;0.77;0.20;;;1.60;95.00;;;;;;5049232;28;20451;-75
2021/11/29 04:20:58;;;;;;;0.50;0.17;;;1.50;94.90;;;;;;5065103;28;20074;-75
2021/11/29 04:23:24;;;;;;;0.60;0.28;;;1.60;94.90;;;;;;5047390;28;20041;-75
2021/11/29 04:25:57;;;;;;;2.53;0.40;;;1.60;94.90;;;;;;5047976;28;20135;-75
2021/11/29 04:28:24;;;;;;;3.80;0.38;;;1.60;94.90;;;;;;5063861;28;20044;-75
2021/11/29 04:30:52;;;;;;;0.82;0.20;;;1.60;94.90;;;;;;5047637;28;20405;-75
2021/11/29 04:33:19;;;;;;;1.48;0.22;;;1.60;94.90;;;;;;5046982;28;20048;-75
2021/11/29 04:35:47;;;;;;;1.53;0.20;;;1.60;94.90;;;;;;5047484;28;20044;-75
2021/11/29 04:38:15;;;;;;;0.53;0.20;;;1.60;94.90;;;;;;5064587;28;20044;-75
2021/11/29 04:40:42;;;;;;;0.97;0.27;;;1.60;95.00;;;;;;5063170;28;20044;-75
2021/11/29 04:43:09;;;;;;;0.50;0.20;;;1.60;94.90;;;;;;5046961;28;20060;-75
2021/11/29 04:45:37;;;;;;;2.60;0.40;;;1.60;94.90;;;;;;5048221;28;20045;-75
2021/11/29 04:48:04;;;;;;;1.47;0.40;;;1.60;94.90;;;;;;5047834;28;20674;-75
2021/11/29 04:50:31;;;;;;;0.70;0.30;;;1.60;94.90;;;;;;5064585;28;20090;-75
2021/11/29 04:52:59;;;;;;;2.53;0.40;;;1.60;94.90;;;;;;5048565;28;20044;-75
2021/11/29 04:55:26;;;;;;;1.10;0.57;;;1.60;94.90;;;;;;5030700;28;20079;-75
2021/11/29 04:57:53;;;;;;;1.30;0.60;;;1.60;94.90;;;;;;5048142;28;20036;-75
2021/11/29 05:00:21;;;;;;;2.35;0.40;;;1.70;94.90;;;;;;5048683;28;20076;-75
2021/11/29 05:02:48;;;;;;;0.77;0.30;;;1.70;94.90;;;;;;5063953;28;20049;-75
2021/11/29 05:05:16;;;;;;;0.87;0.30;;;1.70;94.80;;;;;;5063345;28;20396;-75
2021/11/29 05:07:43;;;;;;;1.90;0.40;;;1.70;94.90;;;;;;5064303;28;20122;-75
2021/11/29 05:10:11;;;;;;;2.17;0.40;;;1.60;94.80;;;;;;5063199;28;20040;-75
2021/11/29 05:12:38;;;;;;;3.33;0.40;;;1.70;94.90;;;;;;5079774;28;20094;-75
2021/11/29 05:15:06;;;;;;;1.47;0.40;;;1.60;95.10;;;;;;5046625;28;20147;-75
2021/11/29 05:17:33;;;;;;;0.97;0.40;;;1.70;94.90;;;;;;5044873;28;20056;-75
2021/11/29 05:20:01;;;;;;;3.50;1.33;;;1.70;94.90;;;;;;5047458;28;20100;-75
2021/11/29 05:22:28;;;;;;;1.30;0.40;;;1.70;94.90;;;;;;5047931;28;20062;-75
2021/11/29 05:24:55;;;;;;;0.93;0.40;;;1.70;94.80;;;;;;5029870;28;20098;-75
2021/11/29 05:27:22;;;;;;;1.23;0.30;;;1.70;94.80;;;;;;5065666;28;20048;-75
2021/11/29 05:29:49;;;;;;;1.03;0.40;;;1.70;94.80;;;;;;5031034;28;20049;-75
2021/11/29 05:32:16;;;;;;;1.85;0.40;;;1.70;94.80;;;;;;5045325;28;20128;-75
2021/11/29 05:34:43;;;;;;;1.53;0.40;;;1.60;95.10;;;;;;5060414;28;20408;-75
2021/11/29 05:37:21;;;;;;;0.90;0.40;;;1.70;94.90;;;;;;5059996;28;20073;-75
2021/11/29 05:39:50;;;;;;;1.17;0.30;;;1.70;94.90;;;;;;5044454;28;20037;-75
2021/11/29 05:42:38;;;;;;;1.67;0.40;;;1.70;94.80;;;;;;5065707;28;20045;-75
2021/11/29 05:45:06;;;;;;;1.73;0.37;;;1.60;94.80;;;;;;5064038;28;20064;-75
2021/11/29 05:47:33;;;;;;;1.63;0.40;;;1.60;94.80;;;;;;5063338;28;20040;-75
2021/11/29 05:50:00;;;;;;;0.60;0.30;;;1.60;94.80;;;;;;5080340;28;20175;-75
2021/11/29 05:52:27;;;;;;;3.17;0.52;;;1.60;94.80;;;;;;5047244;28;20395;-75
2021/11/29 05:54:54;;;;;;;0.70;0.20;;;1.60;94.80;;;;;;5079669;28;20063;-75
2021/11/29 05:57:21;;;;;;;1.27;0.50;;;1.60;94.80;;;;;;5030998;28;20041;-76
2021/11/29 05:59:48;;;;;;;1.00;0.40;;;1.60;94.80;;;;;;5063398;28;20045;-76
2021/11/29 06:02:15;;;;;;;1.70;0.50;;;1.60;94.90;;;;;;5030803;28;20102;-75
2021/11/29 06:04:42;;;;;;;1.17;0.40;;;1.60;94.80;;;;;;5038442;28;20053;-75
2021/11/29 06:07:09;;;;;;;0.82;0.40;;;1.60;94.90;;;;;;5047169;28;20044;-75
2021/11/29 06:09:36;;;;;;;1.27;0.50;;;1.60;94.90;;;;;;5046978;28;20048;-75
2021/11/29 06:12:03;;;;;;;0.80;0.40;;;1.60;94.90;;;;;;5047904;28;20057;-75
2021/11/29 06:14:31;;;;;;;2.10;0.47;;;1.60;94.90;;;;;;5063157;28;20084;-75
2021/11/29 06:16:58;;;;;;;0.90;0.40;;;1.50;94.80;;;;;;5080655;28;20135;-75
2021/11/29 06:19:25;;;;;;;1.40;0.50;;;1.50;94.90;;;;;;5047528;28;20052;-75
2021/11/29 06:21:52;;;;;;;1.30;0.50;;;1.50;94.90;;;;;;5063458;28;20471;-76
2021/11/29 06:24:21;;;;;;;7.10;0.80;;;1.50;94.90;;;;;;5046850;28;20098;-75
2021/11/29 06:26:48;;;;;;;1.03;0.50;;;1.50;94.90;;;;;;5047712;28;20044;-75
2021/11/29 06:29:15;;;;;;;1.80;0.50;;;1.50;94.90;;;;;;5030980;28;20043;-75
2021/11/29 06:31:42;;;;;;;1.00;0.40;;;1.50;95.00;;;;;;5047647;28;20075;-75
2021/11/29 06:34:09;;;;;;;1.77;0.50;;;1.60;95.00;;;;;;5029256;28;20128;-75
2021/11/29 06:36:36;;;;;;;1.07;0.60;;;1.60;95.00;;;;;;5064123;28;20540;-75
2021/11/29 06:39:04;;;;;;;1.10;0.53;;;1.60;94.90;;;;;;5065609;28;20048;-76
2021/11/29 06:41:31;;;;;;;0.93;0.40;;;1.60;94.90;;;;;;5063955;28;20067;-75
2021/11/29 06:43:58;;;;;;;0.90;0.40;;;1.60;94.90;;;;;;5062914;28;20052;-76
2021/11/29 06:46:25;;;;;;;2.33;0.80;;;1.60;94.90;;;;;;5067583;28;20072;-75
2021/11/29 06:48:52;;;;;;;1.90;0.80;;;1.60;94.90;;;;;;5050544;28;20119;-75
2021/11/29 06:51:23;;;;;;;2.13;0.60;;;1.60;94.90;;;;;;5067374;28;20066;-74
2021/11/29 06:53:50;;;;;;;2.17;0.73;;;1.60;94.90;;;;;;5065542;28;20696;-74
2021/11/29 06:56:18;;;;;;;2.37;0.40;;;1.70;95.00;;;;;;5067853;28;20047;-75
2021/11/29 06:58:45;;;;;;;2.53;0.80;;;1.70;95.20;;;;;;5068425;28;20559;-74
2021/11/29 07:01:12;;;;;;;1.95;0.95;;;1.80;94.90;;;;;;5049121;28;20392;-75
2021/11/29 07:03:40;;;;;;;1.98;0.93;;;1.90;94.90;;;;;;5031118;28;20498;-74
2021/11/29 07:06:07;;;;;;;2.60;0.90;;;1.90;94.80;;;;;;5048828;28;20043;-75
2021/11/29 07:08:35;;;;;;;2.67;1.00;;;1.90;94.80;;;;;;5051339;28;20044;-75
2021/11/29 07:11:02;;;;;;;2.77;1.33;;;2.00;94.70;;;;;;5066427;28;20056;-75
2021/11/29 07:13:29;;;;;;;3.23;1.30;;;2.00;94.70;;;;;;5048326;28;20127;-74
2021/11/29 07:15:57;;;;;;;2.83;1.13;;;2.00;94.70;;;;;;5051053;28;20055;-75
2021/11/29 07:18:28;;;;;;;2.93;0.90;;;2.10;94.70;;;;;;5055679;28;20136;-76
2021/11/29 07:20:56;;;;;;;2.40;1.00;;;2.20;94.70;;;;;;5047043;28;20380;-75
2021/11/29 07:23:23;;;;;;;3.88;1.33;;;2.20;94.70;;;;;;5050176;28;20044;-75
2021/11/29 07:25:50;;;;;;;2.45;0.88;;;2.30;94.70;;;;;;5091211;28;20484;-75
2021/11/29 07:28:17;;;;;;;5.63;1.52;;;2.40;94.60;;;;;;5059164;28;20503;-75
2021/11/29 07:30:45;;;;;;;3.10;1.02;;;2.40;94.60;;;;;;5060685;28;20146;-76
2021/11/29 07:33:12;;;;;;;4.22;0.90;;;2.50;94.60;;;;;;5081602;28;20480;-75
2021/11/29 07:35:39;;;;;;;4.55;1.30;;;2.50;94.50;;;;;;5050419;28;20044;-75
2021/11/29 07:38:06;;;;;;;4.43;1.02;;;2.60;94.50;;;;;;5065813;28;20055;-75
2021/11/29 07:40:34;;;;;;;2.55;0.90;;;2.60;94.40;;;;;;5068055;28;20075;-74
2021/11/29 07:43:10;;;;;;;3.25;0.77;;;2.60;94.40;;;;;;5063527;28;20749;-75
2021/11/29 07:45:39;;;;;;;3.35;1.02;;;2.60;94.40;;;;;;5065014;28;20067;-74
2021/11/29 07:48:07;;;;;;;1.50;0.60;;;2.70;94.50;;;;;;5064080;28;20113;-75
2021/11/29 07:50:34;;;;;;;2.57;0.87;;;2.70;94.50;;;;;;5032583;28;20091;-74
2021/11/29 07:53:02;;;;;;;5.05;0.90;;;2.70;94.40;;;;;;5045655;28;20093;-75
2021/11/29 07:55:30;;;;;;;2.75;0.70;;;2.80;94.40;;;;;;5056270;28;20052;-75
2021/11/29 07:57:58;;;;;;;3.28;0.80;;;2.90;94.40;;;;;;5064413;28;20498;-75
2021/11/29 08:00:28;;;;;;;1.90;0.60;;;2.90;94.40;;;;;;5074014;28;20059;-75
2021/11/29 08:02:58;;;;;;;4.70;0.70;;;2.90;94.40;;;;;;5064985;28;20064;-74
2021/11/29 08:05:27;;;;;;;2.20;0.80;;;3.00;94.40;;;;;;5065517;28;20043;-75
2021/11/29 08:07:55;;;;;;;2.08;0.65;;;3.00;94.40;;;;;;5081294;28;20049;-75
2021/11/29 08:10:23;;;;;;;5.65;0.90;;;3.10;94.40;;;;;;5062599;28;20558;-75
2021/11/29 08:12:51;;;;;;;3.13;0.93;;;3.10;94.30;;;;;;5048491;28;20139;-75
2021/11/29 08:15:19;;;;;;;1.88;0.60;;;3.10;94.30;;;;;;5071539;28;20528;-74
2021/11/29 08:17:47;;;;;;;2.65;0.70;;;3.20;94.30;;;;;;5047583;28;20098;-75
2021/11/29 08:20:15;;;;;;;2.88;0.70;;;3.20;94.30;;;;;;5064774;28;20551;-75
2021/11/29 08:22:42;;;;;;;2.42;0.60;;;3.20;94.30;;;;;;5064687;28;20040;-75
2021/11/29 08:25:09;;;;;;;1.80;0.50;;;3.20;94.30;;;;;;5046300;28;20049;-78
2021/11/29 08:27:36;;;;;;;1.45;0.50;;;3.30;94.30;;;;;;5067295;28;20121;-78
2021/11/29 08:30:05;;;;;;;1.25;0.47;;;3.30;94.60;;;;;;5082912;28;20043;-78
2021/11/29 08:32:34;;;;;;;1.45;0.40;;;3.30;94.30;;;;;;5066585;28;20078;-78
2021/11/29 08:35:01;;;;;;;1.05;0.32;;;3.30;94.60;;;;;;5039168;28;20056;-78
2021/11/29 08:37:28;;;;;;;1.77;0.30;;;3.40;94.40;;;;;;5067849;28;20591;-78
2021/11/29 08:39:55;;;;;;;2.28;0.40;;;3.40;94.30;;;;;;5048373;28;20411;-78
2021/11/29 08:42:24;;;;;;;1.50;0.30;;;3.40;94.30;;;;;;5081319;28;20045;-78
2021/11/29 08:44:52;;;;;;;1.42;0.28;;;3.50;94.30;;;;;;5098759;28;20070;-78
2021/11/29 08:47:19;;;;;;;0.80;0.30;;;3.50;94.30;;;;;;5065362;28;20123;-78
2021/11/29 08:49:46;;;;;;;2.13;0.30;;;3.50;94.30;;;;;;5048665;28;20044;-78
2021/11/29 08:52:13;;;;;;;1.80;0.30;;;3.50;94.20;;;;;;5032797;28;20036;-78
2021/11/29 08:54:40;;;;;;;3.30;0.30;;;3.40;94.20;;;;;;5064826;28;20074;-78
2021/11/29 08:57:09;;;;;;;1.17;0.32;;;3.30;94.20;;;;;;5031093;28;20043;-78
2021/11/29 08:59:36;;;;;;;2.47;0.50;;;3.30;94.30;;;;;;5062123;28;20044;-76
2021/11/29 09:02:04;;;;;;;2.25;0.30;;;3.30;94.30;;;;;;5047770;28;20056;-76
2021/11/29 09:04:33;;;;;;;1.65;0.50;;;3.30;94.40;;;;;;5079991;28;20054;-78
2021/11/29 09:07:00;;;;;;;1.45;0.30;;;3.20;94.40;;;;;;5046191;28;20048;-75
2021/11/29 09:09:31;;;;;;;1.60;0.43;;;3.20;94.40;;;;;;5062676;28;20141;-74
2021/11/29 09:12:00;;;;;;;2.03;0.30;;;3.20;94.50;;;;;;5062726;28;20135;-74
2021/11/29 09:14:27;;;;;;;1.92;0.30;;;3.20;94.50;;;;;;5062120;28;20044;-74
2021/11/29 09:16:56;;;;;;;3.13;0.40;;;3.20;94.50;;;;;;5062401;28;20661;-74
2021/11/29 09:19:25;;;;;;;2.97;0.35;;;3.20;94.50;;;;;;5063550;28;20060;-74
2021/11/29 09:21:53;;;;;;;0.77;0.30;;;3.30;94.80;;;;;;5046607;28;20594;-74
2021/11/29 09:24:20;;;;;;;2.08;0.50;;;3.40;94.50;;;;;;5045466;28;20550;-75
2021/11/29 09:26:48;;;;;;;0.60;0.20;;;3.50;94.50;;;;;;5063974;28;20036;-75
2021/11/29 09:29:15;;;;;;;1.92;0.98;;;3.70;94.70;;;;;;5062399;28;20102;-75
2021/11/29 09:31:42;;;;;;;0.73;0.20;;;3.80;94.40;;;;;;5063919;28;20046;-75
2021/11/29 09:34:09;;;;;;;2.25;0.28;;;3.90;94.30;;;;;;5045095;28;20068;-75
2021/11/29 09:36:36;;;;;;;1.13;0.22;;;3.90;94.30;;;;;;5081648;28;20048;-75
2021/11/29 09:39:05;;;;;;;0.50;0.20;;;4.00;94.30;;;;;;5047821;28;20044;-76
2021/11/29 09:41:34;;;;;;;1.60;0.20;;;4.10;94.30;;;;;;5054599;28;20110;-76
2021/11/29 09:44:03;;;;;;;1.33;0.20;;;4.20;94.20;;;;;;5063600;28;20058;-76
2021/11/29 09:46:31;;;;;;;0.98;0.10;;;4.30;94.20;;;;;;5064874;28;20116;-76
2021/11/29 09:48:59;;;;;;;1.02;0.20;;;4.40;94.20;;;;;;5063872;28;21235;-76
2021/11/29 09:51:34;;;;;;;0.98;0.17;;;4.40;94.10;;;;;;5048332;28;20052;-76
2021/11/29 09:54:03;;;;;;;1.17;0.40;;;4.40;94.10;;;;;;5047839;28;20052;-76
2021/11/29 09:56:31;;;;;;;4.25;1.10;;;4.50;94.10;;;;;;5064208;28;20721;-76
2021/11/29 09:58:58;;;;;;;4.20;0.80;;;4.50;94.10;;;;;;5063957;28;20439;-76
2021/11/29 10:01:26;;;;;;;2.78;0.70;;;4.60;94.10;;;;;;5080851;28;20064;-76
2021/11/29 10:04:03;;;;;;;2.08;0.60;;;4.60;94.10;;;;;;5058024;28;20049;-76
2021/11/29 10:06:31;;;;;;;5.90;1.00;;;4.70;94.10;;;;;;5064363;28;20756;-76
2021/11/29 10:08:59;;;;;;;2.45;0.45;;;4.70;94.00;;;;;;5030890;28;20103;-76
2021/11/29 10:11:29;;;;;;;3.03;0.65;;;4.80;94.00;;;;;;5064281;28;20118;-76
2021/11/29 10:14:02;;;;;;;2.42;0.30;;;4.80;94.00;;;;;;5063548;28;20076;-75
2021/11/29 10:16:41;;;;;;;0.75;0.28;;;4.90;94.00;;;;;;5064588;28;20071;-76
2021/11/29 10:19:35;;;;;;;1.88;0.30;;;5.00;94.00;;;;;;5064349;28;20052;-76
2021/11/29 10:22:16;;;;;;;0.93;0.30;;;5.00;94.00;;;;;;5069040;28;20025;-76
2021/11/29 10:24:45;;;;;;;0.77;0.20;;;5.00;94.00;;;;;;5083591;28;20465;-75
2021/11/29 10:27:13;;;;;;;1.27;0.25;;;5.10;94.00;;;;;;5067066;28;20112;-76
2021/11/29 10:29:52;;;;;;;1.02;0.20;;;5.00;94.00;;;;;;5068462;28;20948;-76
2021/11/29 10:32:33;;;;;;;1.92;0.10;;;5.10;94.00;;;;;;5066830;28;20033;-75
2021/11/29 10:35:01;;;;;;;1.13;0.20;;;5.10;93.90;;;;;;5068072;28;20032;-76
2021/11/29 10:37:36;;;;;;;0.13;0.10;;;5.10;93.90;;;;;;5064638;28;20403;-76
2021/11/29 10:40:08;;;;;;;0.63;0.13;;;5.20;94.00;;;;;;5061651;28;20052;-76
2021/11/29 10:42:35;;;;;;;;;;;5.20;93.90;;;;;;5075677;28;20488;-76
2021/11/29 10:45:04;;;;;;;0.25;0.03;;;5.20;93.90;;;;;;5063080;28;19928;-76
2021/11/29 10:47:33;;;;;;;0.20;0.20;;;5.20;94.00;;;;;;5045840;28;20052;-76
2021/11/29 10:50:04;;;;;;;1.48;0.30;;;5.20;93.90;;;;;;5067451;28;20036;-76
2021/11/29 10:52:33;;;;;;;0.47;0.17;;;5.30;93.80;;;;;;5065151;28;20048;-76
2021/11/29 10:55:01;;;;;;;0.70;0.30;;;5.30;93.80;;;;;;5063501;28;20036;-76
2021/11/29 10:57:29;;;;;;;1.02;0.30;;;5.20;93.70;;;;;;5047307;28;20527;-76
2021/11/29 10:59:57;;;;;;;0.63;0.20;;;5.20;93.70;;;;;;5048530;28;20554;-76
2021/11/29 11:02:30;;;;;;;0.32;0.20;;;5.10;93.80;;;;;;5050541;28;20135;-76
2021/11/29 11:05:15;;;;;;;0.82;0.25;;;5.00;93.90;;;;;;5082207;28;20123;-76
2021/11/29 11:07:42;;;;;;;2.80;0.35;;;4.90;94.00;;;;;;5066999;28;20048;-77
2021/11/29 11:10:14;;;;;;;1.77;0.40;;;4.80;94.10;;;;;;5050015;28;20129;-76
2021/11/29 11:12:43;;;;;;;2.45;0.40;;;4.80;94.10;;;;;;5067333;28;20436;-77
2021/11/29 11:15:13;;;;;;;1.13;0.30;;;4.80;94.20;;;;;;5066111;28;20045;-76
2021/11/29 11:18:00;;;;;;;3.17;1.02;;;4.80;94.20;;;;;;5066161;28;20040;-76
2021/11/29 11:20:27;;;;;;;4.13;0.50;;;4.80;94.20;;;;;;5080234;28;21518;-77
2021/11/29 11:22:55;;;;;;;2.00;0.52;;;4.90;94.20;;;;;;5081538;28;20044;-77
2021/11/29 11:25:26;;;;;;;1.45;0.50;;;4.90;94.10;;;;;;5067159;28;20444;-79
2021/11/29 11:28:12;;;;;;;1.10;0.50;;;4.90;94.10;;;;;;5066126;28;20056;-76
2021/11/29 11:30:42;;;;;;;1.63;0.50;;;5.00;94.10;;;;;;5067359;28;20041;-77
2021/11/29 11:33:13;;;;;;;1.42;0.40;;;5.10;94.00;;;;;;5057642;28;20041;-75
2021/11/29 11:35:44;;;;;;;1.10;0.30;;;5.10;94.10;;;;;;5066355;28;20052;-76
2021/11/29 11:38:20;;;;;;;1.23;0.50;;;5.10;94.10;;;;;;5065911;28;20924;-75
2021/11/29 11:40:50;;;;;;;1.40;0.47;;;5.20;94.10;;;;;;5082441;28;20052;-76
2021/11/29 11:43:21;;;;;;;1.77;0.40;;;5.30;94.00;;;;;;5048312;28;20107;-76
2021/11/29 11:45:49;;;;;;;1.25;0.40;;;5.30;93.90;;;;;;5065328;28;20041;-76
2021/11/29 11:48:17;;;;;;;0.52;0.22;;;5.40;94.20;;;;;;5065633;28;20042;-76
2021/11/29 11:50:48;;;;;;;0.57;0.20;;;5.40;93.90;;;;;;5049116;28;20485;-76
2021/11/29 11:53:16;;;;;;;3.05;0.52;;;5.40;93.90;;;;;;5062388;28;20511;-75
2021/11/29 11:55:46;;;;;;;1.13;0.43;;;5.50;93.90;;;;;;5066133;28;20064;-77
2021/11/29 11:58:16;;;;;;;1.20;0.30;;;5.60;93.90;;;;;;5062980;28;20924;-75
2021/11/29 12:01:01;;;;;;;0.50;0.20;;;5.70;93.80;;;;;;5063481;28;20048;-75
2021/11/29 12:03:29;;;;;;;0.73;0.20;;;5.80;93.70;;;;;;5065095;28;20098;-77
2021/11/29 12:05:59;;;;;;;1.08;0.20;;;5.90;93.70;;;;;;5064519;28;20056;-77
2021/11/29 12:08:41;;;;;;;0.93;0.30;;;5.90;93.60;;;;;;5082157;28;20052;-77
2021/11/29 12:11:26;;;;;;;1.92;0.50;;;5.90;93.60;;;;;;5064374;28;20110;-76
2021/11/29 12:14:17;;;;;;;0.70;0.22;;;6.10;93.60;;;;;;5063921;28;20071;-76
2021/11/29 12:16:48;;;;;;;0.98;0.22;;;6.10;93.60;;;;;;5064939;28;20398;-80
2021/11/29 12:19:25;;;;;;;0.45;0.20;;;6.10;93.50;;;;;;5064603;28;20669;-79
2021/11/29 12:21:58;;;;;;;0.68;0.28;;;6.10;93.50;;;;;;5064610;28;20051;-78
2021/11/29 12:24:26;;;;;;;;;;;6.10;93.50;;;;;;5065558;28;20040;-79
2021/11/29 12:27:00;;;;;;;0.90;0.30;;;6.00;93.50;;;;;;5065583;28;20011;-79
2021/11/29 12:29:27;;;;;;;0.80;0.30;;;5.90;93.50;;;;;;5065431;28;20040;-76
2021/11/29 12:32:03;;;;;;;0.98;0.20;;;5.80;93.60;;;;;;5065597;28;20139;-77
2021/11/29 12:34:46;;;;;;;0.80;0.38;;;5.80;93.60;;;;;;5064541;28;20094;-77
2021/11/29 12:37:27;;;;;;;1.02;0.35;;;5.70;93.60;;;;;;5064799;28;20054;-76
2021/11/29 12:40:12;;;;;;;0.70;0.10;;;5.60;93.70;;;;;;5048767;28;20044;-76
2021/11/29 12:42:39;;;;;;;0.52;0.20;;;5.60;93.70;;;;;;5055784;28;20044;-76
2021/11/29 12:45:13;;;;;;;0.93;0.20;;;5.50;93.80;;;;;;5064950;28;20041;-77
2021/11/29 12:47:47;;;;;;;1.77;0.20;;;5.50;93.90;;;;;;5037601;28;20125;-77
2021/11/29 12:50:34;;;;;;;1.60;0.35;;;5.40;93.90;;;;;;5064830;28;20432;-76
2021/11/29 12:53:41;;;;;;;1.23;0.70;;;5.50;93.90;;;;;;5063348;28;20049;-77
2021/11/29 12:56:21;;;;;;;0.50;0.28;;;5.50;93.90;;;;;;5045271;28;20076;-76
2021/11/29 12:59:03;;;;;;;1.08;0.30;;;5.60;93.80;;;;;;5064551;28;20051;-77
2021/11/29 13:01:36;;;;;;;0.47;0.27;;;5.70;93.70;;;;;;5065070;28;20098;-76
2021/11/29 13:04:19;;;;;;;0.98;0.30;;;5.70;93.80;;;;;;5064928;28;20059;-79
2021/11/29 13:06:56;;;;;;;1.40;0.60;;;5.80;93.70;;;;;;5082578;28;20439;-81
2021/11/29 13:09:23;;;;;;;1.77;0.70;;;5.80;93.60;;;;;;5049366;28;20043;-80